createdAt,value
2023-04-28T00:00:32.490Z,7.10
2023-04-28T00:02:59.236Z,6.47
2023-04-28T00:05:26.877Z,7.80
2023-04-28T00:07:53.522Z,6.50
2023-04-28T00:10:20.450Z,5.90
2023-04-28T00:12:47.172Z,5.30
2023-04-28T00:15:13.864Z,5.40
2023-04-28T00:17:40.566Z,6.33
2023-04-28T00:20:08.054Z,6.93
2023-04-28T00:22:35.129Z,7.83
2023-04-28T00:25:02.077Z,8.03
2023-04-28T00:27:28.785Z,5.30
2023-04-28T00:29:55.588Z,5.17
2023-04-28T00:32:22.270Z,5.63
2023-04-28T00:34:48.966Z,9.00
2023-04-28T00:37:15.865Z,7.67
2023-04-28T00:39:42.609Z,7.93
2023-04-28T00:42:09.245Z,5.43
2023-04-28T00:44:35.875Z,6.30
2023-04-28T00:47:02.928Z,7.00
2023-04-28T00:49:30.302Z,10.70
2023-04-28T00:51:58.159Z,7.67
2023-04-28T00:54:24.774Z,8.73
2023-04-28T00:56:51.843Z,7.10
2023-04-28T00:59:18.483Z,6.70
2023-04-28T01:01:45.716Z,6.33
2023-04-28T01:04:12.628Z,6.27
2023-04-28T01:06:41.822Z,7.03
2023-04-28T01:09:08.550Z,6.63
2023-04-28T01:11:35.281Z,5.67
2023-04-28T01:14:01.997Z,6.83
2023-04-28T01:16:28.813Z,6.73
2023-04-28T01:18:55.802Z,7.50
2023-04-28T01:21:32.714Z,8.37
2023-04-28T01:24:00.058Z,6.47
2023-04-28T01:26:27.391Z,7.80
2023-04-28T01:28:54.056Z,6.27
2023-04-28T01:31:20.959Z,7.10
2023-04-28T01:33:47.653Z,6.67
2023-04-28T01:36:14.297Z,6.10
2023-04-28T01:38:40.990Z,7.53
2023-04-28T01:41:07.707Z,13.23
2023-04-28T01:43:34.362Z,7.27
2023-04-28T01:46:01.028Z,6.20
2023-04-28T01:48:27.828Z,8.80
2023-04-28T01:50:54.464Z,6.60
2023-04-28T01:53:21.200Z,8.13
2023-04-28T01:55:47.955Z,6.40
2023-04-28T01:58:14.624Z,6.03
2023-04-28T02:00:41.265Z,4.43
2023-04-28T02:03:08.116Z,7.80
2023-04-28T02:05:34.978Z,6.73
2023-04-28T02:08:01.595Z,7.77
2023-04-28T02:10:28.656Z,6.67
2023-04-28T02:12:55.332Z,6.97
2023-04-28T02:15:22.361Z,10.47
2023-04-28T02:17:49.061Z,8.50
2023-04-28T02:20:16.032Z,6.77
2023-04-28T02:22:42.684Z,7.27
2023-04-28T02:25:09.613Z,6.83
2023-04-28T02:27:39.641Z,8.33
2023-04-28T02:30:06.923Z,7.23
2023-04-28T02:32:33.909Z,6.97
2023-04-28T02:35:00.646Z,6.10
2023-04-28T02:37:27.359Z,9.37
2023-04-28T02:39:53.999Z,7.07
2023-04-28T02:42:21.025Z,8.87
2023-04-28T02:44:47.685Z,7.63
2023-04-28T02:47:14.387Z,8.43
2023-04-28T02:49:41.230Z,8.47
2023-04-28T02:52:08.404Z,7.13
2023-04-28T02:54:36.857Z,5.93
2023-04-28T02:57:04.688Z,7.57
2023-04-28T02:59:31.455Z,7.87
2023-04-28T03:01:58.678Z,7.80
2023-04-28T03:04:25.521Z,8.90
2023-04-28T03:06:52.331Z,7.37
2023-04-28T03:09:19.038Z,6.73
2023-04-28T03:11:45.680Z,7.73
2023-04-28T03:14:12.414Z,8.30
2023-04-28T03:16:39.215Z,5.20
2023-04-28T03:19:05.963Z,8.87
2023-04-28T03:21:33.008Z,9.23
2023-04-28T03:23:59.755Z,9.73
2023-04-28T03:26:26.539Z,7.37
2023-04-28T03:28:53.272Z,9.33
2023-04-28T03:31:19.915Z,8.17
2023-04-28T03:33:47.207Z,10.60
2023-04-28T03:36:14.127Z,7.10
2023-04-28T03:38:41.449Z,6.53
2023-04-28T03:41:08.130Z,8.20
2023-04-28T03:43:37.394Z,7.20
2023-04-28T03:46:07.127Z,7.43
2023-04-28T03:48:33.855Z,7.50
2023-04-28T03:51:00.551Z,11.13
2023-04-28T03:53:27.301Z,9.10
2023-04-28T03:55:54.097Z,7.43
2023-04-28T03:58:20.979Z,7.03
2023-04-28T04:00:47.746Z,7.10
2023-04-28T04:03:14.513Z,7.27
2023-04-28T04:05:41.557Z,6.93
2023-04-28T04:08:08.250Z,8.13
2023-04-28T04:10:34.949Z,6.97
2023-04-28T04:13:02.010Z,7.73
2023-04-28T04:15:50.148Z,7.60
2023-04-28T04:18:36.737Z,8.33
2023-04-28T04:21:23.389Z,6.33
2023-04-28T04:24:10.023Z,8.90
2023-04-28T04:26:56.670Z,8.53
2023-04-28T04:29:43.278Z,9.60
2023-04-28T04:32:23.803Z,8.30
2023-04-28T04:34:55.880Z,9.23
2023-04-28T04:37:42.551Z,10.87
2023-04-28T04:40:29.192Z,9.80
2023-04-28T04:43:14.737Z,9.47
2023-04-28T04:45:41.473Z,8.37
2023-04-28T04:48:08.248Z,9.00
2023-04-28T04:50:34.921Z,9.37
2023-04-28T04:53:01.794Z,8.83
2023-04-28T04:55:28.568Z,10.30
2023-04-28T04:57:55.232Z,6.90
2023-04-28T05:00:22.064Z,11.60
2023-04-28T05:02:48.901Z,9.87
2023-04-28T05:05:21.487Z,8.33
2023-04-28T05:07:49.438Z,10.33
2023-04-28T05:10:16.143Z,8.77
2023-04-28T05:12:46.807Z,8.60
2023-04-28T05:15:15.299Z,7.33
2023-04-28T05:17:41.986Z,8.87
2023-04-28T05:20:10.169Z,7.97
2023-04-28T05:22:37.739Z,9.50
2023-04-28T05:25:04.804Z,9.20
2023-04-28T05:27:31.693Z,9.37
2023-04-28T05:29:59.949Z,6.73
2023-04-28T05:32:26.688Z,10.07
2023-04-28T05:34:53.335Z,9.97
2023-04-28T05:37:20.072Z,10.53
2023-04-28T05:39:46.776Z,9.10
2023-04-28T05:42:13.540Z,10.63
2023-04-28T05:44:42.491Z,7.47
2023-04-28T05:47:09.917Z,9.90
2023-04-28T05:49:37.461Z,9.73
2023-04-28T05:52:04.543Z,10.30
2023-04-28T05:54:31.488Z,10.03
2023-04-28T05:56:59.584Z,12.37
2023-04-28T05:59:28.707Z,8.03
2023-04-28T06:01:55.486Z,11.03
2023-04-28T06:04:22.594Z,10.40
2023-04-28T06:06:49.862Z,9.07
2023-04-28T06:09:16.767Z,10.50
2023-04-28T06:11:43.569Z,9.03
2023-04-28T06:14:10.351Z,10.90
2023-04-28T06:16:37.030Z,9.87
2023-04-28T06:19:04.042Z,11.23
2023-04-28T06:21:32.444Z,8.13
2023-04-28T06:23:59.229Z,12.60
2023-04-28T06:26:25.896Z,9.07
2023-04-28T06:28:52.585Z,10.53
2023-04-28T06:31:19.332Z,10.20
2023-04-28T06:33:46.008Z,9.20
2023-04-28T06:36:18.387Z,9.23
2023-04-28T06:38:46.302Z,10.47
2023-04-28T06:41:14.207Z,13.13
2023-04-28T06:43:41.262Z,11.60
2023-04-28T06:46:08.561Z,8.30
2023-04-28T06:48:35.384Z,8.37
2023-04-28T06:51:02.260Z,9.40
2023-04-28T06:53:28.964Z,10.50
2023-04-28T06:55:56.573Z,9.90
2023-04-28T06:58:23.276Z,10.93
2023-04-28T07:00:50.113Z,8.53
2023-04-28T07:03:16.926Z,9.73
2023-04-28T07:05:43.729Z,9.87
2023-04-28T07:08:10.700Z,11.53
2023-04-28T07:10:37.423Z,9.50
2023-04-28T07:13:04.465Z,10.10
2023-04-28T07:15:31.722Z,10.77
2023-04-28T07:17:58.531Z,8.80
2023-04-28T07:20:25.294Z,9.53
2023-04-28T07:22:52.213Z,8.80
2023-04-28T07:25:18.940Z,10.77
2023-04-28T07:27:48.151Z,9.97
2023-04-28T07:30:26.775Z,12.00
2023-04-28T07:32:55.132Z,9.90
2023-04-28T07:35:22.226Z,12.23
2023-04-28T07:37:49.073Z,10.40
2023-04-28T07:40:16.029Z,8.27
2023-04-28T07:42:43.095Z,10.17
2023-04-28T07:45:10.866Z,12.40
2023-04-28T07:47:37.713Z,10.20
2023-04-28T07:50:06.575Z,8.97
2023-04-28T07:52:34.082Z,12.67
2023-04-28T07:55:02.457Z,9.83
2023-04-28T07:57:29.479Z,9.50
2023-04-28T07:59:56.484Z,11.97
2023-04-28T08:02:23.368Z,9.30
2023-04-28T08:04:50.392Z,8.80
2023-04-28T08:07:17.442Z,10.07
2023-04-28T08:09:47.388Z,13.10
2023-04-28T08:12:15.088Z,9.50
2023-04-28T08:14:42.108Z,9.40
2023-04-28T08:17:12.396Z,12.03
2023-04-28T08:19:39.208Z,9.23
2023-04-28T08:22:07.099Z,9.77
2023-04-28T08:24:34.589Z,12.67
2023-04-28T08:27:05.912Z,10.67
2023-04-28T08:29:32.980Z,9.33
2023-04-28T08:32:01.301Z,10.10
2023-04-28T08:34:29.498Z,9.67
2023-04-28T08:36:56.166Z,10.70
2023-04-28T08:39:23.865Z,11.10
2023-04-28T08:41:51.575Z,12.07
2023-04-28T08:44:19.129Z,11.40
2023-04-28T08:46:47.359Z,9.87
2023-04-28T08:49:18.995Z,10.67
2023-04-28T08:51:50.803Z,10.40
2023-04-28T08:54:25.990Z,9.70
2023-04-28T08:56:54.438Z,13.60
2023-04-28T08:59:21.689Z,10.90
2023-04-28T09:01:52.121Z,13.20
2023-04-28T09:04:20.002Z,10.53
2023-04-28T09:06:47.632Z,14.50
2023-04-28T09:09:34.187Z,12.43
2023-04-28T09:12:04.210Z,12.00
2023-04-28T09:14:35.576Z,14.97
2023-04-28T09:17:09.317Z,12.97
2023-04-28T09:19:37.802Z,9.87
2023-04-28T09:22:21.783Z,13.17
2023-04-28T09:24:54.163Z,9.87
2023-04-28T09:27:28.093Z,11.83
2023-04-28T09:29:54.929Z,12.27
2023-04-28T09:32:23.820Z,11.10
2023-04-28T09:34:52.829Z,11.27
2023-04-28T09:37:21.825Z,10.83
2023-04-28T09:39:54.153Z,13.73
2023-04-28T09:42:37.330Z,13.67
2023-04-28T09:45:05.576Z,11.47
2023-04-28T09:47:35.462Z,12.03
2023-04-28T09:50:09.485Z,17.10
2023-04-28T09:52:36.846Z,11.57
2023-04-28T09:55:08.863Z,13.43
2023-04-28T09:57:36.608Z,11.50
2023-04-28T10:00:09.414Z,17.33
2023-04-28T10:05:09.946Z,12.80
2023-04-28T10:07:38.012Z,10.83
2023-04-28T10:10:05.607Z,12.27
2023-04-28T10:12:32.856Z,13.20
2023-04-28T10:15:00.388Z,13.27
2023-04-28T10:17:29.766Z,11.67
2023-04-28T10:19:57.301Z,13.27
2023-04-28T10:22:32.466Z,13.07
2023-04-28T10:25:12.106Z,13.80
2023-04-28T10:27:41.570Z,12.00
2023-04-28T10:30:26.708Z,14.60
2023-04-28T10:33:06.843Z,9.60
2023-04-28T10:35:36.487Z,13.13
2023-04-28T10:38:17.241Z,11.63
2023-04-28T10:40:44.894Z,12.47
2023-04-28T10:43:13.803Z,12.57
2023-04-28T10:45:50.342Z,10.20
2023-04-28T10:48:17.392Z,9.47
2023-04-28T10:51:13.190Z,13.30
2023-04-28T10:53:46.701Z,12.00
2023-04-28T10:56:27.521Z,9.10
2023-04-28T10:58:58.459Z,11.67
2023-04-28T11:01:32.055Z,12.13
2023-04-28T11:04:02.824Z,13.33
2023-04-28T11:06:35.730Z,11.73
2023-04-28T11:09:14.903Z,12.63
2023-04-28T11:11:59.808Z,13.10
2023-04-28T11:14:26.600Z,13.30
2023-04-28T11:17:00.118Z,12.73
2023-04-28T11:19:49.691Z,12.43
2023-04-28T11:22:22.802Z,10.27
2023-04-28T11:24:57.785Z,10.90
2023-04-28T11:27:25.917Z,11.13
2023-04-28T11:29:53.458Z,13.83
2023-04-28T11:32:33.468Z,13.93
2023-04-28T11:35:00.626Z,14.40
2023-04-28T11:37:28.712Z,14.70
2023-04-28T11:39:55.458Z,13.47
2023-04-28T11:42:22.428Z,12.30
2023-04-28T11:44:53.921Z,14.10
2023-04-28T11:47:31.333Z,16.53
2023-04-28T11:49:58.802Z,13.10
2023-04-28T11:52:27.513Z,11.80
2023-04-28T11:54:55.920Z,14.37
2023-04-28T11:57:23.437Z,11.53
2023-04-28T11:59:51.070Z,14.33
2023-04-28T12:02:27.949Z,14.47
2023-04-28T12:04:55.075Z,14.20
2023-04-28T12:07:21.814Z,15.67
2023-04-28T12:10:12.346Z,13.53
2023-04-28T12:12:51.057Z,11.37
2023-04-28T12:15:21.891Z,13.63
2023-04-28T12:17:50.889Z,14.30
2023-04-28T12:20:38.668Z,14.13
2023-04-28T12:23:06.364Z,12.17
2023-04-28T12:25:35.233Z,11.50
2023-04-28T12:28:04.588Z,10.50
2023-04-28T12:30:34.191Z,10.53
2023-04-28T12:33:02.308Z,10.20
2023-04-28T12:35:29.664Z,11.53
2023-04-28T12:37:58.686Z,11.50
2023-04-28T12:40:27.399Z,10.10
2023-04-28T12:42:54.940Z,12.90
2023-04-28T12:45:21.924Z,10.13
2023-04-28T12:47:49.176Z,12.37
2023-04-28T12:50:17.074Z,9.30
2023-04-28T12:52:44.196Z,9.80
2023-04-28T12:55:11.272Z,12.23
2023-04-28T12:57:39.657Z,13.23
2023-04-28T13:00:08.428Z,9.97
2023-04-28T13:02:35.898Z,9.70
2023-04-28T13:05:03.191Z,13.57
2023-04-28T13:07:30.608Z,8.70
2023-04-28T13:09:58.310Z,8.13
2023-04-28T13:12:27.079Z,12.13
2023-04-28T13:14:53.933Z,11.20
2023-04-28T13:17:21.877Z,9.73
2023-04-28T13:19:48.820Z,9.40
2023-04-28T13:22:16.541Z,9.43
2023-04-28T13:24:44.363Z,9.30
2023-04-28T13:27:11.897Z,10.13
2023-04-28T13:29:39.546Z,11.03
2023-04-28T13:32:06.659Z,11.20
2023-04-28T13:34:34.729Z,9.63
2023-04-28T13:37:01.542Z,11.97
2023-04-28T13:39:28.569Z,10.60
2023-04-28T13:41:55.953Z,9.20
2023-04-28T13:44:22.758Z,10.70
2023-04-28T13:46:50.559Z,11.57
2023-04-28T13:49:17.588Z,9.93
2023-04-28T13:51:46.278Z,10.17
2023-04-28T13:54:13.247Z,11.77
2023-04-28T13:56:40.677Z,9.80
2023-04-28T13:59:08.575Z,11.60
2023-04-28T14:01:36.163Z,9.80
2023-04-28T14:04:03.573Z,12.73
2023-04-28T14:06:32.911Z,11.67
2023-04-28T14:09:01.234Z,21.33
2023-04-28T14:11:28.922Z,10.73
2023-04-28T14:13:55.749Z,10.60
2023-04-28T14:16:22.527Z,12.10
2023-04-28T14:18:49.879Z,9.97
2023-04-28T14:21:16.699Z,12.40
2023-04-28T14:23:43.414Z,12.83
2023-04-28T14:26:10.357Z,13.17
2023-04-28T14:28:37.785Z,11.63
2023-04-28T14:31:09.103Z,11.83
2023-04-28T14:33:36.778Z,11.20
2023-04-28T14:36:04.582Z,11.73
2023-04-28T14:38:31.766Z,11.43
2023-04-28T14:40:58.546Z,14.13
2023-04-28T14:43:25.973Z,11.17
2023-04-28T14:45:53.102Z,11.80
2023-04-28T14:48:20.763Z,11.13
2023-04-28T14:50:48.193Z,10.97
2023-04-28T14:53:15.078Z,12.30
2023-04-28T14:55:42.318Z,12.37
2023-04-28T14:58:09.010Z,13.13
2023-04-28T15:00:36.151Z,11.73
2023-04-28T15:03:03.149Z,11.97
2023-04-28T15:05:30.578Z,14.53
2023-04-28T15:07:57.574Z,18.50
2023-04-28T15:10:24.542Z,14.20
2023-04-28T15:12:51.362Z,14.07
2023-04-28T15:15:18.148Z,14.03
2023-04-28T15:17:45.602Z,13.30
2023-04-28T15:20:12.620Z,16.13
2023-04-28T15:22:39.488Z,12.80
2023-04-28T15:25:07.457Z,17.23
2023-04-28T15:27:34.183Z,14.23
2023-04-28T15:30:01.518Z,17.33
2023-04-28T15:32:30.451Z,16.33
2023-04-28T15:34:57.557Z,15.90
2023-04-28T15:37:45.111Z,13.67
2023-04-28T15:40:14.761Z,15.97
2023-04-28T15:42:53.053Z,15.37
2023-04-28T15:45:21.807Z,14.50
2023-04-28T15:47:50.681Z,16.87
2023-04-28T15:50:19.815Z,18.43
2023-04-28T15:52:49.643Z,15.63
2023-04-28T15:55:17.954Z,17.07
2023-04-28T15:57:46.988Z,15.70
2023-04-28T16:00:15.571Z,13.87
2023-04-28T16:02:43.643Z,16.67
2023-04-28T16:05:11.410Z,16.97
2023-04-28T16:07:41.063Z,15.97
2023-04-28T16:10:10.196Z,17.03
2023-04-28T16:12:37.610Z,15.87
2023-04-28T16:15:05.242Z,19.20
2023-04-28T16:17:34.047Z,16.43
2023-04-28T16:20:00.860Z,16.33
2023-04-28T16:22:30.733Z,15.07
2023-04-28T16:24:57.802Z,16.07
2023-04-28T16:27:24.627Z,15.90
2023-04-28T16:29:51.749Z,15.80
2023-04-28T16:32:18.665Z,14.37
2023-04-28T16:34:45.615Z,16.33
2023-04-28T16:37:12.330Z,16.77
2023-04-28T16:39:39.259Z,18.30
2023-04-28T16:42:06.155Z,18.73
2023-04-28T16:44:33.151Z,15.70
2023-04-28T16:46:59.912Z,16.27
2023-04-28T16:49:26.649Z,14.40
2023-04-28T16:52:02.012Z,14.60
2023-04-28T16:54:29.545Z,14.90
2023-04-28T16:56:57.083Z,15.63
2023-04-28T16:59:30.960Z,16.97
2023-04-28T17:01:59.501Z,16.63
2023-04-28T17:04:28.164Z,20.73
2023-04-28T17:06:55.451Z,15.73
2023-04-28T17:09:22.906Z,19.13
2023-04-28T17:11:50.292Z,17.43
2023-04-28T17:14:17.126Z,18.33
2023-04-28T17:16:44.403Z,17.33
2023-04-28T17:19:11.911Z,18.93
2023-04-28T17:21:38.950Z,14.97
2023-04-28T17:24:05.961Z,15.57
2023-04-28T17:26:32.803Z,15.23
2023-04-28T17:29:02.442Z,16.67
2023-04-28T17:31:29.671Z,15.20
2023-04-28T17:33:58.894Z,14.97
2023-04-28T17:36:28.656Z,16.57
2023-04-28T17:38:55.782Z,16.17
2023-04-28T17:41:23.080Z,18.37
2023-04-28T17:43:53.308Z,14.20
2023-04-28T17:46:20.140Z,16.50
2023-04-28T17:48:46.970Z,17.17
2023-04-28T17:51:13.789Z,19.43
2023-04-28T17:53:40.752Z,16.53
2023-04-28T17:56:09.045Z,16.40
2023-04-28T17:58:36.536Z,16.53
2023-04-28T18:01:04.415Z,15.93
2023-04-28T18:03:32.506Z,17.43
2023-04-28T18:05:59.604Z,15.93
2023-04-28T18:08:26.488Z,16.43
2023-04-28T18:10:53.575Z,15.47
2023-04-28T18:13:20.391Z,20.50
2023-04-28T18:15:47.316Z,16.63
2023-04-28T18:18:14.048Z,21.00
2023-04-28T18:20:42.258Z,24.30
2023-04-28T18:23:09.767Z,21.73
2023-04-28T18:25:39.402Z,25.93
2023-04-28T18:28:08.171Z,24.03
2023-04-28T18:30:40.905Z,24.00
2023-04-28T18:33:09.591Z,22.37
2023-04-28T18:35:37.196Z,21.20
2023-04-28T18:38:05.177Z,23.37
2023-04-28T18:40:37.723Z,24.50
2023-04-28T18:43:06.195Z,24.17
2023-04-28T18:45:35.514Z,24.80
2023-04-28T18:48:08.500Z,27.50
2023-04-28T18:50:38.562Z,26.80
2023-04-28T18:53:05.481Z,28.57
2023-04-28T18:55:33.670Z,26.07
2023-04-28T18:58:02.197Z,28.37
2023-04-28T19:00:29.413Z,27.50
2023-04-28T19:02:56.413Z,25.83
2023-04-28T19:05:23.392Z,27.27
2023-04-28T19:07:50.215Z,27.97
2023-04-28T19:10:17.006Z,29.63
2023-04-28T19:12:43.763Z,29.33
2023-04-28T19:15:10.861Z,27.73
2023-04-28T19:17:37.761Z,27.43
2023-04-28T19:20:05.008Z,28.27
2023-04-28T19:22:33.321Z,28.20
2023-04-28T19:25:01.638Z,29.10
2023-04-28T19:27:33.032Z,27.97
2023-04-28T19:30:01.345Z,27.40
2023-04-28T19:32:28.885Z,29.80
2023-04-28T19:34:56.359Z,26.67
2023-04-28T19:37:23.485Z,27.33
2023-04-28T19:39:51.650Z,27.33
2023-04-28T19:42:20.069Z,27.33
2023-04-28T19:44:48.468Z,27.53
2023-04-28T19:47:30.894Z,23.03
2023-04-28T19:49:57.798Z,23.10
2023-04-28T19:52:24.622Z,22.73
2023-04-28T19:54:52.624Z,18.93
2023-04-28T19:57:19.942Z,17.73
2023-04-28T19:59:49.331Z,18.00
2023-04-28T20:02:19.081Z,15.77
2023-04-28T20:04:46.496Z,15.13
2023-04-28T20:07:14.196Z,13.70
2023-04-28T20:09:40.963Z,13.50
2023-04-28T20:12:09.097Z,12.97
2023-04-28T20:14:37.200Z,13.00
2023-04-28T20:17:05.232Z,11.27
2023-04-28T20:19:32.018Z,11.97
2023-04-28T20:21:58.874Z,12.03
2023-04-28T20:24:26.107Z,12.43
2023-04-28T20:26:54.716Z,12.20
2023-04-28T20:29:21.728Z,13.47
2023-04-28T20:31:48.763Z,14.23
2023-04-28T20:34:15.739Z,13.53
2023-04-28T20:36:43.171Z,13.87
2023-04-28T20:39:11.775Z,13.00
2023-04-28T20:41:41.028Z,13.93
2023-04-28T20:44:08.090Z,13.03
2023-04-28T20:46:35.652Z,13.03
2023-04-28T20:49:04.289Z,14.27
2023-04-28T20:51:34.303Z,12.50
2023-04-28T20:54:01.770Z,15.67
2023-04-28T20:56:28.639Z,14.63
2023-04-28T20:58:55.898Z,13.43
2023-04-28T21:01:23.215Z,15.43
2023-04-28T21:03:51.499Z,13.50
2023-04-28T21:06:18.790Z,14.77
2023-04-28T21:08:45.733Z,13.77
2023-04-28T21:11:13.783Z,14.47
2023-04-28T21:13:42.817Z,17.80
2023-04-28T21:16:20.653Z,16.10
2023-04-28T21:18:49.135Z,16.50
2023-04-28T21:21:16.215Z,14.17
2023-04-28T21:23:43.121Z,15.03
2023-04-28T21:26:10.532Z,16.00
2023-04-28T21:28:39.886Z,15.67
2023-04-28T21:31:06.923Z,16.10
2023-04-28T21:33:36.018Z,16.47
2023-04-28T21:36:09.802Z,15.33
2023-04-28T21:38:40.041Z,15.67
2023-04-28T21:41:07.830Z,16.87
2023-04-28T21:43:34.996Z,19.40
2023-04-28T21:46:06.365Z,16.23
2023-04-28T21:48:33.292Z,17.60
2023-04-28T21:51:00.167Z,18.23
2023-04-28T21:53:27.078Z,17.93
2023-04-28T21:55:53.752Z,18.37
2023-04-28T21:58:20.803Z,20.80
2023-04-28T22:00:47.954Z,21.07
2023-04-28T22:03:15.760Z,21.27
2023-04-28T22:05:44.077Z,20.43
2023-04-28T22:08:11.229Z,23.23
2023-04-28T22:10:38.396Z,22.30
2023-04-28T22:13:06.131Z,21.77
2023-04-28T22:15:33.464Z,22.87
2023-04-28T22:18:00.569Z,21.83
2023-04-28T22:20:27.535Z,21.73
2023-04-28T22:22:54.301Z,22.07
2023-04-28T22:25:21.522Z,22.67
2023-04-28T22:27:48.275Z,20.27
2023-04-28T22:30:15.655Z,21.17
2023-04-28T22:32:47.140Z,24.77
2023-04-28T22:35:14.799Z,22.07
2023-04-28T22:37:41.663Z,24.10
2023-04-28T22:40:09.001Z,25.50
2023-04-28T22:42:37.241Z,25.07
2023-04-28T22:45:04.537Z,27.47
2023-04-28T22:47:31.299Z,28.70
2023-04-28T22:49:58.098Z,32.93
2023-04-28T22:52:25.163Z,35.23
2023-04-28T22:54:53.643Z,36.17
2023-04-28T22:57:20.614Z,39.70
2023-04-28T22:59:47.340Z,38.70
2023-04-28T23:02:14.183Z,39.50
2023-04-28T23:04:41.225Z,43.00
2023-04-28T23:07:08.448Z,39.47
2023-04-28T23:09:37.247Z,45.33
2023-04-28T23:12:04.821Z,45.47
2023-04-28T23:14:32.444Z,50.20
2023-04-28T23:16:59.265Z,44.70
2023-04-28T23:19:26.270Z,44.40
2023-04-28T23:21:53.002Z,48.23
2023-04-28T23:24:19.898Z,44.73
2023-04-28T23:26:46.664Z,48.00
2023-04-28T23:29:13.352Z,42.80
2023-04-28T23:31:40.191Z,38.73
2023-04-28T23:34:07.031Z,39.43
2023-04-28T23:36:33.866Z,42.67
2023-04-28T23:39:01.654Z,45.37
2023-04-28T23:41:28.619Z,49.73
2023-04-28T23:43:55.379Z,46.30
2023-04-28T23:46:22.145Z,44.20
2023-04-28T23:48:48.883Z,47.37
2023-04-28T23:51:15.626Z,50.00
2023-04-28T23:53:42.896Z,50.20
2023-04-28T23:56:09.709Z,51.30
2023-04-28T23:58:36.561Z,53.97
